Kezdőlap
METAR-TAF:

METAR-TAF

Repülőterek :

Oxford, Anglia

földrajzi szélesség: 51-50-13N, földrajzi hosszúság: 1-19-12W, magasság: 82 m

Jelenlegi meteorológiai megfigyelések

A jelentés 5 órával és 20 perccel ezelõtt készült, 22:20 UTC
Nyugat-délnyugati szél 5 kt
Hőmérséklet 1°C
Páratartalom 86%
Légköri nyomás 1014 hPa
Látótávolság 10 km, vagy több
felhőtlen 1500 m magasságban, és nincs gomolyfelhõ

METAR: EGTK 272220Z 25005KT CAVOK 01/M01 Q1014

Idő: 03:40 (03:40 UTC)

Előrejelzés

A jelentés 7 órával és 40 perccel ezelõtt készült, 20:00 UTC
Az előrejelzés 27-én 21 óra UTC és 28-én 06 óra UTC között érvényes
Északnyugati szél 12 kt
Látótávolság 10 km, vagy több
felhőtlen 1500 m magasságban, és nincs gomolyfelhõ

TAF: EGTK 272000Z 2721/2806 31012KT CAVOK

Meteorológiai megfigyelések és előrejelzések több, mint 4000 repülőtéren (METAR és TAF jelentéseket).

A térképen piros és sárga pontok jelzik az elérhető meteorológiai állomásokat.

Mozgassa az egeret a pont fölött, hogy megjelenjen az állomás neve.

Azután kattintson az időjárási megfigyelések és előrejelzések megtekintéséhez.

A térkép megváltoztatása: kattintson a fekete keresztel jelölt zöld gombra ráközelítéshez, a vonallal jelölt zöld gombra távolításhoz, vagy a zöld nyilakra a szomszédos térképek eléréséhez.


METAR-TAF: